sensor_id;sensor_type;location;lat;lon;timestamp;temperature;humidity
27314;DHT22;14800;48.174;9.798;2022-12-07T00:02:04;5.20;86.00
27314;DHT22;14800;48.174;9.798;2022-12-07T00:04:30;5.20;86.00
27314;DHT22;14800;48.174;9.798;2022-12-07T00:06:55;5.20;86.00
27314;DHT22;14800;48.174;9.798;2022-12-07T00:09:21;5.10;86.00
27314;DHT22;14800;48.174;9.798;2022-12-07T00:11:51;5.20;86.00
27314;DHT22;14800;48.174;9.798;2022-12-07T00:14:17;5.10;86.00
27314;DHT22;14800;48.174;9.798;2022-12-07T00:16:43;5.20;86.10
27314;DHT22;14800;48.174;9.798;2022-12-07T00:19:11;5.20;86.10
27314;DHT22;14800;48.174;9.798;2022-12-07T00:21:37;5.20;86.10
27314;DHT22;14800;48.174;9.798;2022-12-07T00:24:04;5.20;86.10
27314;DHT22;14800;48.174;9.798;2022-12-07T00:26:35;5.20;86.10
27314;DHT22;14800;48.174;9.798;2022-12-07T00:29:11;5.30;86.10
27314;DHT22;14800;48.174;9.798;2022-12-07T00:31:38;5.30;86.10
27314;DHT22;14800;48.174;9.798;2022-12-07T00:34:05;5.30;86.00
27314;DHT22;14800;48.174;9.798;2022-12-07T00:36:31;5.30;86.00
27314;DHT22;14800;48.174;9.798;2022-12-07T00:38:58;5.30;86.00
27314;DHT22;14800;48.174;9.798;2022-12-07T00:41:25;5.30;85.90
27314;DHT22;14800;48.174;9.798;2022-12-07T00:43:52;5.30;85.80
27314;DHT22;14800;48.174;9.798;2022-12-07T00:46:18;5.40;85.90
27314;DHT22;14800;48.174;9.798;2022-12-07T00:48:44;5.40;85.80
27314;DHT22;14800;48.174;9.798;2022-12-07T00:51:12;5.40;85.70
27314;DHT22;14800;48.174;9.798;2022-12-07T00:53:39;5.40;85.70
27314;DHT22;14800;48.174;9.798;2022-12-07T00:56:09;5.40;85.60
27314;DHT22;14800;48.174;9.798;2022-12-07T00:58:36;5.40;85.60
27314;DHT22;14800;48.174;9.798;2022-12-07T01:01:03;5.40;85.70
27314;DHT22;14800;48.174;9.798;2022-12-07T01:03:29;5.40;85.70
27314;DHT22;14800;48.174;9.798;2022-12-07T01:05:56;5.40;85.60
27314;DHT22;14800;48.174;9.798;2022-12-07T01:08:22;5.50;85.60
27314;DHT22;14800;48.174;9.798;2022-12-07T01:10:48;5.50;85.60
27314;DHT22;14800;48.174;9.798;2022-12-07T01:13:15;5.50;85.60
27314;DHT22;14800;48.174;9.798;2022-12-07T01:15:42;5.50;85.60
27314;DHT22;14800;48.174;9.798;2022-12-07T01:18:08;5.60;85.50
27314;DHT22;14800;48.174;9.798;2022-12-07T01:20:33;5.60;85.50
27314;DHT22;14800;48.174;9.798;2022-12-07T01:22:59;5.60;85.40
27314;DHT22;14800;48.174;9.798;2022-12-07T01:25:25;5.60;85.30
27314;DHT22;14800;48.174;9.798;2022-12-07T01:27:50;5.60;85.10
27314;DHT22;14800;48.174;9.798;2022-12-07T01:30:16;5.60;84.90
27314;DHT22;14800;48.174;9.798;2022-12-07T01:32:41;5.60;84.90
27314;DHT22;14800;48.174;9.798;2022-12-07T01:35:07;5.60;84.80
27314;DHT22;14800;48.174;9.798;2022-12-07T01:37:37;5.60;84.90
27314;DHT22;14800;48.174;9.798;2022-12-07T01:40:05;5.60;85.00
27314;DHT22;14800;48.174;9.798;2022-12-07T01:42:31;5.60;85.00
27314;DHT22;14800;48.174;9.798;2022-12-07T01:47:47;5.70;85.00
27314;DHT22;14800;48.174;9.798;2022-12-07T01:50:13;5.70;85.00
27314;DHT22;14800;48.174;9.798;2022-12-07T01:52:40;5.70;84.90
27314;DHT22;14800;48.174;9.798;2022-12-07T01:55:09;5.70;84.80
27314;DHT22;14800;48.174;9.798;2022-12-07T01:57:40;5.70;84.70
27314;DHT22;14800;48.174;9.798;2022-12-07T02:00:07;5.70;84.70
27314;DHT22;14800;48.174;9.798;2022-12-07T02:02:36;5.70;85.80
27314;DHT22;14800;48.174;9.798;2022-12-07T02:05:04;5.70;84.80
27314;DHT22;14800;48.174;9.798;2022-12-07T02:07:32;5.70;84.70
27314;DHT22;14800;48.174;9.798;2022-12-07T02:10:13;5.70;84.70
27314;DHT22;14800;48.174;9.798;2022-12-07T02:12:38;5.70;84.60
27314;DHT22;14800;48.174;9.798;2022-12-07T02:15:05;5.70;84.70
27314;DHT22;14800;48.174;9.798;2022-12-07T02:18:07;5.70;84.50
27314;DHT22;14800;48.174;9.798;2022-12-07T02:29:10;5.70;84.50
27314;DHT22;14800;48.174;9.798;2022-12-07T02:31:38;5.70;84.40
27314;DHT22;14800;48.174;9.798;2022-12-07T02:34:17;5.70;84.50
27314;DHT22;14800;48.174;9.798;2022-12-07T02:36:44;5.70;84.60
27314;DHT22;14800;48.174;9.798;2022-12-07T02:39:37;5.70;84.50
27314;DHT22;14800;48.174;9.798;2022-12-07T02:42:13;5.70;84.50
27314;DHT22;14800;48.174;9.798;2022-12-07T02:44:39;5.70;84.60
27314;DHT22;14800;48.174;9.798;2022-12-07T02:47:08;5.70;84.60
27314;DHT22;14800;48.174;9.798;2022-12-07T02:49:36;5.70;84.50
27314;DHT22;14800;48.174;9.798;2022-12-07T02:52:03;5.70;84.40
27314;DHT22;14800;48.174;9.798;2022-12-07T02:54:29;5.70;84.50
27314;DHT22;14800;48.174;9.798;2022-12-07T03:02:31;5.60;84.20
27314;DHT22;14800;48.174;9.798;2022-12-07T03:11:04;5.50;84.40
27314;DHT22;14800;48.174;9.798;2022-12-07T03:16:14;5.40;84.60
27314;DHT22;14800;48.174;9.798;2022-12-07T03:18:56;5.40;84.60
27314;DHT22;14800;48.174;9.798;2022-12-07T03:21:32;5.40;84.70
27314;DHT22;14800;48.174;9.798;2022-12-07T03:24:01;5.40;84.90
27314;DHT22;14800;48.174;9.798;2022-12-07T03:26:32;5.30;85.00
27314;DHT22;14800;48.174;9.798;2022-12-07T03:29:02;5.30;85.20
27314;DHT22;14800;48.174;9.798;2022-12-07T03:31:38;5.30;85.30
27314;DHT22;14800;48.174;9.798;2022-12-07T03:34:11;5.30;85.40
27314;DHT22;14800;48.174;9.798;2022-12-07T03:36:53;5.30;85.40
27314;DHT22;14800;48.174;9.798;2022-12-07T03:39:32;5.30;85.60
27314;DHT22;14800;48.174;9.798;2022-12-07T03:42:00;5.30;86.50
27314;DHT22;14800;48.174;9.798;2022-12-07T03:44:26;5.20;85.80
27314;DHT22;14800;48.174;9.798;2022-12-07T03:47:16;5.20;85.80
27314;DHT22;14800;48.174;9.798;2022-12-07T03:49:48;5.30;86.10
27314;DHT22;14800;48.174;9.798;2022-12-07T03:52:23;5.30;86.00
27314;DHT22;14800;48.174;9.798;2022-12-07T03:55:00;5.30;85.90
27314;DHT22;14800;48.174;9.798;2022-12-07T03:57:28;5.30;85.80
27314;DHT22;14800;48.174;9.798;2022-12-07T03:59:55;5.30;85.80
27314;DHT22;14800;48.174;9.798;2022-12-07T04:02:23;5.40;86.00
27314;DHT22;14800;48.174;9.798;2022-12-07T04:04:50;5.40;86.00
27314;DHT22;14800;48.174;9.798;2022-12-07T04:07:15;5.40;86.00
27314;DHT22;14800;48.174;9.798;2022-12-07T04:09:41;5.40;85.90
27314;DHT22;14800;48.174;9.798;2022-12-07T04:12:07;5.40;85.90
27314;DHT22;14800;48.174;9.798;2022-12-07T04:14:33;5.40;85.80
27314;DHT22;14800;48.174;9.798;2022-12-07T04:16:58;5.50;85.90
27314;DHT22;14800;48.174;9.798;2022-12-07T04:19:29;5.50;85.80
27314;DHT22;14800;48.174;9.798;2022-12-07T04:21:56;5.50;85.60
27314;DHT22;14800;48.174;9.798;2022-12-07T04:24:22;5.50;85.50
27314;DHT22;14800;48.174;9.798;2022-12-07T04:26:50;5.50;85.40
27314;DHT22;14800;48.174;9.798;2022-12-07T04:29:17;5.50;85.40
27314;DHT22;14800;48.174;9.798;2022-12-07T04:31:43;5.50;85.90
27314;DHT22;14800;48.174;9.798;2022-12-07T04:34:09;5.50;85.50
27314;DHT22;14800;48.174;9.798;2022-12-07T04:36:35;5.60;85.50
27314;DHT22;14800;48.174;9.798;2022-12-07T04:39:04;5.60;85.40
27314;DHT22;14800;48.174;9.798;2022-12-07T04:41:29;5.60;85.30
27314;DHT22;14800;48.174;9.798;2022-12-07T04:43:57;5.60;85.30
27314;DHT22;14800;48.174;9.798;2022-12-07T04:46:24;5.60;85.20
27314;DHT22;14800;48.174;9.798;2022-12-07T04:48:51;5.60;85.10
27314;DHT22;14800;48.174;9.798;2022-12-07T04:51:20;5.60;85.10
27314;DHT22;14800;48.174;9.798;2022-12-07T04:53:47;5.60;85.00
27314;DHT22;14800;48.174;9.798;2022-12-07T04:56:13;5.60;85.00
27314;DHT22;14800;48.174;9.798;2022-12-07T04:58:39;5.60;84.90
27314;DHT22;14800;48.174;9.798;2022-12-07T05:01:05;5.60;84.90
27314;DHT22;14800;48.174;9.798;2022-12-07T05:03:30;5.60;84.90
27314;DHT22;14800;48.174;9.798;2022-12-07T05:05:56;5.60;84.90
27314;DHT22;14800;48.174;9.798;2022-12-07T05:08:21;5.60;84.90
27314;DHT22;14800;48.174;9.798;2022-12-07T05:10:48;5.60;84.90
27314;DHT22;14800;48.174;9.798;2022-12-07T05:13:14;5.60;84.70
27314;DHT22;14800;48.174;9.798;2022-12-07T05:15:40;5.60;84.70
27314;DHT22;14800;48.174;9.798;2022-12-07T05:18:05;5.60;84.70
27314;DHT22;14800;48.174;9.798;2022-12-07T05:20:31;5.60;84.70
27314;DHT22;14800;48.174;9.798;2022-12-07T05:22:57;5.60;84.90
27314;DHT22;14800;48.174;9.798;2022-12-07T05:25:24;5.60;84.80
27314;DHT22;14800;48.174;9.798;2022-12-07T05:27:49;5.60;84.90
27314;DHT22;14800;48.174;9.798;2022-12-07T05:30:15;5.60;84.90
27314;DHT22;14800;48.174;9.798;2022-12-07T05:32:41;5.60;84.90
27314;DHT22;14800;48.174;9.798;2022-12-07T05:35:06;5.60;84.90
27314;DHT22;14800;48.174;9.798;2022-12-07T05:37:32;5.60;84.80
27314;DHT22;14800;48.174;9.798;2022-12-07T05:39:58;5.50;84.80
27314;DHT22;14800;48.174;9.798;2022-12-07T05:42:24;5.60;84.90
27314;DHT22;14800;48.174;9.798;2022-12-07T05:44:49;5.60;84.90
27314;DHT22;14800;48.174;9.798;2022-12-07T05:47:15;5.50;84.80
27314;DHT22;14800;48.174;9.798;2022-12-07T05:49:41;5.50;84.80
27314;DHT22;14800;48.174;9.798;2022-12-07T05:52:07;5.50;84.90
27314;DHT22;14800;48.174;9.798;2022-12-07T05:54:33;5.50;84.90
27314;DHT22;14800;48.174;9.798;2022-12-07T05:56:58;5.50;84.80
27314;DHT22;14800;48.174;9.798;2022-12-07T05:59:24;5.50;84.70
27314;DHT22;14800;48.174;9.798;2022-12-07T06:02:07;5.50;84.70
27314;DHT22;14800;48.174;9.798;2022-12-07T06:04:36;5.50;84.70
27314;DHT22;14800;48.174;9.798;2022-12-07T06:07:02;5.50;84.80
27314;DHT22;14800;48.174;9.798;2022-12-07T06:09:29;5.50;84.80
27314;DHT22;14800;48.174;9.798;2022-12-07T06:11:56;5.50;84.90
27314;DHT22;14800;48.174;9.798;2022-12-07T06:14:40;5.50;85.00
27314;DHT22;14800;48.174;9.798;2022-12-07T06:17:06;5.50;85.00
27314;DHT22;14800;48.174;9.798;2022-12-07T06:19:32;5.50;84.90
27314;DHT22;14800;48.174;9.798;2022-12-07T06:21:58;5.50;84.90
27314;DHT22;14800;48.174;9.798;2022-12-07T06:24:24;5.50;84.70
27314;DHT22;14800;48.174;9.798;2022-12-07T06:26:50;5.50;84.70
27314;DHT22;14800;48.174;9.798;2022-12-07T06:29:17;5.40;84.60
27314;DHT22;14800;48.174;9.798;2022-12-07T06:31:43;5.40;84.40
27314;DHT22;14800;48.174;9.798;2022-12-07T06:34:11;5.40;84.40
27314;DHT22;14800;48.174;9.798;2022-12-07T06:36:38;5.30;84.40
27314;DHT22;14800;48.174;9.798;2022-12-07T06:39:04;5.30;84.60
27314;DHT22;14800;48.174;9.798;2022-12-07T06:41:31;5.30;84.60
27314;DHT22;14800;48.174;9.798;2022-12-07T06:43:56;5.20;84.60
27314;DHT22;14800;48.174;9.798;2022-12-07T06:46:23;5.20;84.70
27314;DHT22;14800;48.174;9.798;2022-12-07T06:48:49;5.20;84.80
27314;DHT22;14800;48.174;9.798;2022-12-07T06:51:14;5.20;84.80
27314;DHT22;14800;48.174;9.798;2022-12-07T06:53:40;5.20;84.80
27314;DHT22;14800;48.174;9.798;2022-12-07T06:56:06;5.20;84.90
27314;DHT22;14800;48.174;9.798;2022-12-07T06:58:32;5.10;84.90
27314;DHT22;14800;48.174;9.798;2022-12-07T07:00:57;5.10;85.00
27314;DHT22;14800;48.174;9.798;2022-12-07T07:03:23;5.10;84.90
27314;DHT22;14800;48.174;9.798;2022-12-07T07:05:48;5.10;84.90
27314;DHT22;14800;48.174;9.798;2022-12-07T07:08:14;5.00;85.00
27314;DHT22;14800;48.174;9.798;2022-12-07T07:10:40;5.00;85.10
27314;DHT22;14800;48.174;9.798;2022-12-07T07:13:06;5.00;85.10
27314;DHT22;14800;48.174;9.798;2022-12-07T07:15:33;5.10;85.10
27314;DHT22;14800;48.174;9.798;2022-12-07T07:17:59;5.10;85.10
27314;DHT22;14800;48.174;9.798;2022-12-07T07:20:25;5.00;85.10
27314;DHT22;14800;48.174;9.798;2022-12-07T07:22:54;5.00;85.10
27314;DHT22;14800;48.174;9.798;2022-12-07T07:25:20;5.00;84.90
27314;DHT22;14800;48.174;9.798;2022-12-07T07:27:45;5.00;84.90
27314;DHT22;14800;48.174;9.798;2022-12-07T07:30:11;5.00;84.90
27314;DHT22;14800;48.174;9.798;2022-12-07T07:32:37;5.00;84.90
27314;DHT22;14800;48.174;9.798;2022-12-07T07:35:03;4.90;84.90
27314;DHT22;14800;48.174;9.798;2022-12-07T07:37:28;4.90;85.00
27314;DHT22;14800;48.174;9.798;2022-12-07T07:39:54;4.90;85.10
27314;DHT22;14800;48.174;9.798;2022-12-07T07:42:19;4.90;85.10
27314;DHT22;14800;48.174;9.798;2022-12-07T07:44:45;4.90;85.10
27314;DHT22;14800;48.174;9.798;2022-12-07T07:47:11;4.90;85.10
27314;DHT22;14800;48.174;9.798;2022-12-07T07:49:36;4.90;85.10
27314;DHT22;14800;48.174;9.798;2022-12-07T07:52:02;4.90;85.10
27314;DHT22;14800;48.174;9.798;2022-12-07T07:54:28;4.90;85.10
27314;DHT22;14800;48.174;9.798;2022-12-07T07:56:54;4.90;85.20
27314;DHT22;14800;48.174;9.798;2022-12-07T07:59:19;4.90;85.30
27314;DHT22;14800;48.174;9.798;2022-12-07T08:01:45;4.90;85.30
27314;DHT22;14800;48.174;9.798;2022-12-07T08:04:10;4.90;85.30
27314;DHT22;14800;48.174;9.798;2022-12-07T08:06:36;4.90;85.30
27314;DHT22;14800;48.174;9.798;2022-12-07T08:09:02;4.90;85.30
27314;DHT22;14800;48.174;9.798;2022-12-07T08:11:28;4.90;85.10
27314;DHT22;14800;48.174;9.798;2022-12-07T08:13:53;5.00;85.10
27314;DHT22;14800;48.174;9.798;2022-12-07T08:16:19;5.00;85.10
27314;DHT22;14800;48.174;9.798;2022-12-07T08:18:45;5.00;85.00
27314;DHT22;14800;48.174;9.798;2022-12-07T08:21:13;4.90;84.90
27314;DHT22;14800;48.174;9.798;2022-12-07T08:23:39;4.90;84.90
27314;DHT22;14800;48.174;9.798;2022-12-07T08:26:07;5.00;85.00
27314;DHT22;14800;48.174;9.798;2022-12-07T08:28:33;4.90;84.90
27314;DHT22;14800;48.174;9.798;2022-12-07T08:31:00;5.00;85.10
27314;DHT22;14800;48.174;9.798;2022-12-07T08:33:27;5.00;85.10
27314;DHT22;14800;48.174;9.798;2022-12-07T08:35:52;5.00;85.20
27314;DHT22;14800;48.174;9.798;2022-12-07T08:38:18;5.00;85.10
27314;DHT22;14800;48.174;9.798;2022-12-07T08:40:44;5.10;85.10
27314;DHT22;14800;48.174;9.798;2022-12-07T08:43:09;5.00;85.00
27314;DHT22;14800;48.174;9.798;2022-12-07T08:45:35;5.10;85.00
27314;DHT22;14800;48.174;9.798;2022-12-07T08:48:10;5.10;84.90
27314;DHT22;14800;48.174;9.798;2022-12-07T08:50:38;5.10;84.90
27314;DHT22;14800;48.174;9.798;2022-12-07T08:53:05;5.10;84.90
27314;DHT22;14800;48.174;9.798;2022-12-07T08:55:31;5.10;84.80
27314;DHT22;14800;48.174;9.798;2022-12-07T08:57:59;5.10;84.80
27314;DHT22;14800;48.174;9.798;2022-12-07T09:00:26;5.10;84.70
27314;DHT22;14800;48.174;9.798;2022-12-07T09:02:51;5.20;84.80
27314;DHT22;14800;48.174;9.798;2022-12-07T09:05:18;5.10;84.70
27314;DHT22;14800;48.174;9.798;2022-12-07T09:07:47;5.10;84.70
27314;DHT22;14800;48.174;9.798;2022-12-07T09:10:14;5.20;84.90
27314;DHT22;14800;48.174;9.798;2022-12-07T09:12:40;5.20;84.80
27314;DHT22;14800;48.174;9.798;2022-12-07T09:15:07;5.20;84.60
27314;DHT22;14800;48.174;9.798;2022-12-07T09:17:34;5.10;84.40
27314;DHT22;14800;48.174;9.798;2022-12-07T09:19:59;5.10;84.60
27314;DHT22;14800;48.174;9.798;2022-12-07T09:22:29;5.10;84.80
27314;DHT22;14800;48.174;9.798;2022-12-07T09:24:58;5.10;84.90
27314;DHT22;14800;48.174;9.798;2022-12-07T09:27:24;5.10;84.90
27314;DHT22;14800;48.174;9.798;2022-12-07T09:29:50;5.10;85.00
27314;DHT22;14800;48.174;9.798;2022-12-07T09:32:15;5.10;85.10
27314;DHT22;14800;48.174;9.798;2022-12-07T09:34:41;5.10;85.20
27314;DHT22;14800;48.174;9.798;2022-12-07T09:37:07;5.20;85.30
27314;DHT22;14800;48.174;9.798;2022-12-07T09:39:33;5.20;85.00
27314;DHT22;14800;48.174;9.798;2022-12-07T09:42:03;5.30;84.90
27314;DHT22;14800;48.174;9.798;2022-12-07T09:44:29;5.30;84.60
27314;DHT22;14800;48.174;9.798;2022-12-07T09:46:55;5.40;84.50
27314;DHT22;14800;48.174;9.798;2022-12-07T09:49:23;5.40;84.30
27314;DHT22;14800;48.174;9.798;2022-12-07T09:52:25;5.40;84.20
27314;DHT22;14800;48.174;9.798;2022-12-07T09:54:52;5.40;83.20
27314;DHT22;14800;48.174;9.798;2022-12-07T09:57:23;5.50;83.70
27314;DHT22;14800;48.174;9.798;2022-12-07T09:59:50;5.60;83.30
27314;DHT22;14800;48.174;9.798;2022-12-07T10:05:05;5.60;82.10
27314;DHT22;14800;48.174;9.798;2022-12-07T10:07:31;5.70;82.50
27314;DHT22;14800;48.174;9.798;2022-12-07T10:09:56;5.70;82.30
27314;DHT22;14800;48.174;9.798;2022-12-07T10:12:22;5.70;81.60
27314;DHT22;14800;48.174;9.798;2022-12-07T10:14:57;5.80;82.00
27314;DHT22;14800;48.174;9.798;2022-12-07T10:17:51;5.80;81.00
27314;DHT22;14800;48.174;9.798;2022-12-07T10:20:26;5.90;80.30
27314;DHT22;14800;48.174;9.798;2022-12-07T10:22:56;5.90;79.60
27314;DHT22;14800;48.174;9.798;2022-12-07T10:25:25;6.00;79.70
27314;DHT22;14800;48.174;9.798;2022-12-07T10:28:27;6.00;79.60
27314;DHT22;14800;48.174;9.798;2022-12-07T10:31:13;6.10;77.90
27314;DHT22;14800;48.174;9.798;2022-12-07T10:33:57;6.20;78.30
27314;DHT22;14800;48.174;9.798;2022-12-07T10:41:29;6.30;76.20
27314;DHT22;14800;48.174;9.798;2022-12-07T10:43:56;6.20;76.10
27314;DHT22;14800;48.174;9.798;2022-12-07T10:46:36;6.20;76.90
27314;DHT22;14800;48.174;9.798;2022-12-07T11:05:56;6.50;75.90
27314;DHT22;14800;48.174;9.798;2022-12-07T11:11:33;6.60;75.90
27314;DHT22;14800;48.174;9.798;2022-12-07T11:33:52;6.80;75.10
27314;DHT22;14800;48.174;9.798;2022-12-07T11:36:36;6.80;75.40
27314;DHT22;14800;48.174;9.798;2022-12-07T11:39:54;6.80;74.70
27314;DHT22;14800;48.174;9.798;2022-12-07T11:42:00;6.90;75.10
27314;DHT22;14800;48.174;9.798;2022-12-07T11:44:43;6.90;75.30
27314;DHT22;14800;48.174;9.798;2022-12-07T11:47:25;7.00;73.90
27314;DHT22;14800;48.174;9.798;2022-12-07T11:58:22;7.10;73.30
27314;DHT22;14800;48.174;9.798;2022-12-07T12:00:51;7.10;73.00
27314;DHT22;14800;48.174;9.798;2022-12-07T12:03:28;7.10;73.90
27314;DHT22;14800;48.174;9.798;2022-12-07T12:05:57;7.10;72.90
27314;DHT22;14800;48.174;9.798;2022-12-07T12:09:11;7.20;73.50
27314;DHT22;14800;48.174;9.798;2022-12-07T12:17:16;7.20;72.70
27314;DHT22;14800;48.174;9.798;2022-12-07T12:20:29;7.30;73.30
27314;DHT22;14800;48.174;9.798;2022-12-07T12:23:13;7.20;72.10
27314;DHT22;14800;48.174;9.798;2022-12-07T12:25:45;7.20;72.80
27314;DHT22;14800;48.174;9.798;2022-12-07T12:28:39;7.30;74.00
27314;DHT22;14800;48.174;9.798;2022-12-07T12:33:31;7.20;72.80
27314;DHT22;14800;48.174;9.798;2022-12-07T12:47:02;7.20;73.20
27314;DHT22;14800;48.174;9.798;2022-12-07T12:49:34;7.20;73.20
27314;DHT22;14800;48.174;9.798;2022-12-07T12:57:30;7.30;73.40
27314;DHT22;14800;48.174;9.798;2022-12-07T13:00:00;7.30;73.00
27314;DHT22;14800;48.174;9.798;2022-12-07T13:02:36;7.40;72.80
27314;DHT22;14800;48.174;9.798;2022-12-07T13:05:14;7.40;73.00
27314;DHT22;14800;48.174;9.798;2022-12-07T13:07:49;7.40;73.20
27314;DHT22;14800;48.174;9.798;2022-12-07T13:15:40;7.40;73.30
27314;DHT22;14800;48.174;9.798;2022-12-07T13:21:38;7.40;71.70
27314;DHT22;14800;48.174;9.798;2022-12-07T13:23:59;7.40;72.40
27314;DHT22;14800;48.174;9.798;2022-12-07T13:26:42;7.40;72.50
27314;DHT22;14800;48.174;9.798;2022-12-07T13:39:51;7.30;71.90
27314;DHT22;14800;48.174;9.798;2022-12-07T13:42:29;7.30;72.40
27314;DHT22;14800;48.174;9.798;2022-12-07T13:44:56;7.30;72.50
27314;DHT22;14800;48.174;9.798;2022-12-07T13:47:35;7.30;73.00
27314;DHT22;14800;48.174;9.798;2022-12-07T13:50:28;7.30;72.50
27314;DHT22;14800;48.174;9.798;2022-12-07T13:53:00;7.30;72.10
27314;DHT22;14800;48.174;9.798;2022-12-07T13:55:28;7.20;72.40
27314;DHT22;14800;48.174;9.798;2022-12-07T13:57:55;7.20;72.80
27314;DHT22;14800;48.174;9.798;2022-12-07T14:00:26;7.20;73.00
27314;DHT22;14800;48.174;9.798;2022-12-07T14:02:56;7.20;72.70
27314;DHT22;14800;48.174;9.798;2022-12-07T14:05:33;7.20;72.90
27314;DHT22;14800;48.174;9.798;2022-12-07T14:08:05;7.20;72.80
27314;DHT22;14800;48.174;9.798;2022-12-07T14:10:36;7.20;72.80
27314;DHT22;14800;48.174;9.798;2022-12-07T14:13:03;7.20;73.00
27314;DHT22;14800;48.174;9.798;2022-12-07T14:15:51;7.20;73.20
27314;DHT22;14800;48.174;9.798;2022-12-07T14:21:14;7.10;72.60
27314;DHT22;14800;48.174;9.798;2022-12-07T14:23:41;7.10;72.80
27314;DHT22;14800;48.174;9.798;2022-12-07T14:26:18;7.10;73.40
27314;DHT22;14800;48.174;9.798;2022-12-07T14:28:45;7.10;73.50
27314;DHT22;14800;48.174;9.798;2022-12-07T14:31:16;7.10;73.50
27314;DHT22;14800;48.174;9.798;2022-12-07T14:33:42;7.10;73.40
27314;DHT22;14800;48.174;9.798;2022-12-07T14:36:12;7.10;73.40
27314;DHT22;14800;48.174;9.798;2022-12-07T14:38:38;7.10;73.40
27314;DHT22;14800;48.174;9.798;2022-12-07T14:41:09;7.00;73.60
27314;DHT22;14800;48.174;9.798;2022-12-07T14:43:56;7.10;73.70
27314;DHT22;14800;48.174;9.798;2022-12-07T14:46:22;7.10;73.90
27314;DHT22;14800;48.174;9.798;2022-12-07T14:48:47;7.10;73.90
27314;DHT22;14800;48.174;9.798;2022-12-07T14:51:13;7.00;73.90
27314;DHT22;14800;48.174;9.798;2022-12-07T14:53:48;7.10;73.90
27314;DHT22;14800;48.174;9.798;2022-12-07T14:56:14;7.10;73.70
27314;DHT22;14800;48.174;9.798;2022-12-07T14:58:40;7.10;73.90
27314;DHT22;14800;48.174;9.798;2022-12-07T15:01:06;7.00;73.80
27314;DHT22;14800;48.174;9.798;2022-12-07T15:03:32;7.00;73.80
27314;DHT22;14800;48.174;9.798;2022-12-07T15:06:00;7.00;73.90
27314;DHT22;14800;48.174;9.798;2022-12-07T15:08:25;7.00;74.70
27314;DHT22;14800;48.174;9.798;2022-12-07T15:10:51;7.00;73.90
27314;DHT22;14800;48.174;9.798;2022-12-07T15:13:17;7.00;74.00
27314;DHT22;14800;48.174;9.798;2022-12-07T15:16:01;7.00;74.00
27314;DHT22;14800;48.174;9.798;2022-12-07T15:18:27;6.90;74.10
27314;DHT22;14800;48.174;9.798;2022-12-07T15:20:52;6.90;74.10
27314;DHT22;14800;48.174;9.798;2022-12-07T15:23:18;6.90;74.00
27314;DHT22;14800;48.174;9.798;2022-12-07T15:25:45;6.90;74.00
27314;DHT22;14800;48.174;9.798;2022-12-07T15:28:12;6.80;74.10
27314;DHT22;14800;48.174;9.798;2022-12-07T15:30:38;6.80;74.20
27314;DHT22;14800;48.174;9.798;2022-12-07T15:33:04;6.80;74.30
27314;DHT22;14800;48.174;9.798;2022-12-07T15:35:30;6.70;74.20
27314;DHT22;14800;48.174;9.798;2022-12-07T15:37:55;6.70;74.30
27314;DHT22;14800;48.174;9.798;2022-12-07T15:40:21;6.70;74.20
27314;DHT22;14800;48.174;9.798;2022-12-07T15:42:46;6.60;74.10
27314;DHT22;14800;48.174;9.798;2022-12-07T15:45:12;6.60;74.10
27314;DHT22;14800;48.174;9.798;2022-12-07T15:47:43;6.50;74.00
27314;DHT22;14800;48.174;9.798;2022-12-07T15:50:12;6.40;74.00
27314;DHT22;14800;48.174;9.798;2022-12-07T15:52:39;6.30;74.10
27314;DHT22;14800;48.174;9.798;2022-12-07T15:55:05;6.30;74.40
27314;DHT22;14800;48.174;9.798;2022-12-07T15:57:32;6.20;74.50
27314;DHT22;14800;48.174;9.798;2022-12-07T15:59:58;6.20;74.40
27314;DHT22;14800;48.174;9.798;2022-12-07T16:02:24;6.10;74.30
27314;DHT22;14800;48.174;9.798;2022-12-07T16:04:51;6.00;74.20
27314;DHT22;14800;48.174;9.798;2022-12-07T16:07:17;6.00;74.30
27314;DHT22;14800;48.174;9.798;2022-12-07T16:09:44;5.90;74.30
27314;DHT22;14800;48.174;9.798;2022-12-07T16:12:11;5.80;74.70
27314;DHT22;14800;48.174;9.798;2022-12-07T16:14:38;5.70;74.80
27314;DHT22;14800;48.174;9.798;2022-12-07T16:17:03;5.70;74.80
27314;DHT22;14800;48.174;9.798;2022-12-07T16:19:30;5.60;74.70
27314;DHT22;14800;48.174;9.798;2022-12-07T16:21:56;5.50;74.80
27314;DHT22;14800;48.174;9.798;2022-12-07T16:24:22;5.40;75.00
27314;DHT22;14800;48.174;9.798;2022-12-07T16:26:48;5.30;75.00
27314;DHT22;14800;48.174;9.798;2022-12-07T16:29:14;5.10;75.20
27314;DHT22;14800;48.174;9.798;2022-12-07T16:31:39;5.10;75.50
27314;DHT22;14800;48.174;9.798;2022-12-07T16:34:06;4.90;75.50
27314;DHT22;14800;48.174;9.798;2022-12-07T16:36:32;4.80;75.70
27314;DHT22;14800;48.174;9.798;2022-12-07T16:38:59;4.70;75.90
27314;DHT22;14800;48.174;9.798;2022-12-07T16:41:25;4.60;76.00
27314;DHT22;14800;48.174;9.798;2022-12-07T16:43:50;4.60;76.40
27314;DHT22;14800;48.174;9.798;2022-12-07T16:46:19;4.50;76.50
27314;DHT22;14800;48.174;9.798;2022-12-07T16:48:44;4.40;76.70
27314;DHT22;14800;48.174;9.798;2022-12-07T16:51:12;4.30;77.00
27314;DHT22;14800;48.174;9.798;2022-12-07T16:53:41;4.30;77.20
27314;DHT22;14800;48.174;9.798;2022-12-07T16:56:12;4.20;77.30
27314;DHT22;14800;48.174;9.798;2022-12-07T16:58:38;4.10;77.40
27314;DHT22;14800;48.174;9.798;2022-12-07T17:01:14;4.10;77.60
27314;DHT22;14800;48.174;9.798;2022-12-07T17:03:40;4.00;77.80
27314;DHT22;14800;48.174;9.798;2022-12-07T17:06:21;4.00;78.00
27314;DHT22;14800;48.174;9.798;2022-12-07T17:08:47;3.90;78.00
27314;DHT22;14800;48.174;9.798;2022-12-07T17:11:18;3.90;78.10
27314;DHT22;14800;48.174;9.798;2022-12-07T17:13:44;3.90;78.30
27314;DHT22;14800;48.174;9.798;2022-12-07T17:16:29;3.90;78.30
27314;DHT22;14800;48.174;9.798;2022-12-07T17:18:55;3.90;78.50
27314;DHT22;14800;48.174;9.798;2022-12-07T17:21:21;3.80;78.60
27314;DHT22;14800;48.174;9.798;2022-12-07T17:23:48;3.80;78.80
27314;DHT22;14800;48.174;9.798;2022-12-07T17:26:19;3.80;79.00
27314;DHT22;14800;48.174;9.798;2022-12-07T17:28:45;3.80;79.30
27314;DHT22;14800;48.174;9.798;2022-12-07T17:31:13;3.80;79.30
27314;DHT22;14800;48.174;9.798;2022-12-07T17:33:39;3.80;79.40
27314;DHT22;14800;48.174;9.798;2022-12-07T17:36:14;3.80;79.50
27314;DHT22;14800;48.174;9.798;2022-12-07T17:38:40;3.80;79.80
27314;DHT22;14800;48.174;9.798;2022-12-07T17:41:17;3.80;79.80
27314;DHT22;14800;48.174;9.798;2022-12-07T17:44:04;3.80;79.90
27314;DHT22;14800;48.174;9.798;2022-12-07T17:46:30;3.80;79.80
27314;DHT22;14800;48.174;9.798;2022-12-07T17:48:57;3.80;79.90
27314;DHT22;14800;48.174;9.798;2022-12-07T17:51:23;3.80;80.00
27314;DHT22;14800;48.174;9.798;2022-12-07T17:54:08;3.80;80.20
27314;DHT22;14800;48.174;9.798;2022-12-07T17:56:34;3.80;80.30
27314;DHT22;14800;48.174;9.798;2022-12-07T17:59:00;3.80;80.40
27314;DHT22;14800;48.174;9.798;2022-12-07T18:01:26;3.80;80.40
27314;DHT22;14800;48.174;9.798;2022-12-07T18:03:51;3.90;80.60
27314;DHT22;14800;48.174;9.798;2022-12-07T18:06:17;3.90;80.80